Time;durP1;ratioP1;P1;durP2;ratioP2;P2;SDS_P1;SDS_P2;PMS_P1;PMS_P2;Temp;Humidity;BMP_temperature;BMP_pressure;BME280_temperature;BME280_humidity;BME280_pressure;Samples;Min_cycle;Max_cycle;Signal;HPM_P1;HPM_P2
2021/12/02 00:00:40;;;;;;;;;;;;;;;17.49;67.33;97544.09;3071612;28;19941;-54
2021/12/02 00:02:13;;;;;;;;;;;;;;;17.47;67.28;97531.94;3071760;28;19922;-55
2021/12/02 00:03:46;;;;;;;;;;;;;;;17.47;67.11;97524.75;3071809;28;19934;-51
2021/12/02 00:05:18;;;;;;;;;;;;;;;17.45;67.34;97526.00;3070956;28;19922;-56
2021/12/02 00:06:49;;;;;;;;;;;;;;;17.46;67.60;97528.47;3071444;28;19934;-55
2021/12/02 00:08:21;;;;;;;;;;;;;;;17.44;67.71;97525.19;3071995;28;19926;-53
2021/12/02 00:09:54;;;;;;;;;;;;;;;17.44;67.53;97522.53;3067092;28;19981;-56
2021/12/02 00:11:26;;;;;;;;;;;;;;;17.43;67.41;97524.34;3070102;28;19969;-54
2021/12/02 00:12:58;;;;;;;;;;;;;;;17.41;67.65;97521.09;3072512;28;19930;-53
2021/12/02 00:14:38;;;;;;;;;;;;;;;17.38;67.35;97521.56;3070428;28;19956;-56
2021/12/02 00:16:18;;;;;;;;;;;;;;;17.37;67.54;97524.44;3075218;28;20400;-52
2021/12/02 00:17:57;;;;;;;;;;;;;;;17.36;67.49;97518.28;3069980;28;20499;-52
2021/12/02 00:21:18;;;;;;;;;;;;;;;17.33;67.56;97520.59;3072232;28;19969;-54
2021/12/02 00:23:03;;;;;;;;;;;;;;;17.31;67.55;97503.91;3070838;28;20979;-53
2021/12/02 00:24:36;;;;;;;;;;;;;;;17.31;67.61;97501.22;3069926;28;20305;-54
2021/12/02 00:26:09;;;;;;;;;;;;;;;17.29;67.59;97496.06;3073452;28;19922;-56
2021/12/02 00:27:42;;;;;;;;;;;;;;;17.28;67.65;97493.63;3066724;28;20053;-52
2021/12/02 00:29:15;;;;;;;;;;;;;;;17.27;67.87;97500.00;3071113;28;19980;-53
2021/12/02 00:30:46;;;;;;;;;;;;;;;17.27;67.84;97502.69;3070097;28;19937;-52
2021/12/02 00:32:18;;;;;;;;;;;;;;;17.26;67.83;97490.34;3070515;28;19926;-53
2021/12/02 00:33:53;;;;;;;;;;;;;;;17.26;67.98;97495.69;3071661;28;19930;-55
2021/12/02 00:35:24;;;;;;;;;;;;;;;17.22;67.95;97492.66;3071556;28;19926;-55
2021/12/02 00:36:57;;;;;;;;;;;;;;;17.23;68.17;97493.47;3070255;28;20332;-56
2021/12/02 00:38:28;;;;;;;;;;;;;;;17.21;68.05;97480.28;3071965;28;20644;-53
2021/12/02 00:40:00;;;;;;;;;;;;;;;17.18;68.02;97472.69;3071313;28;19933;-53
2021/12/02 00:41:32;;;;;;;;;;;;;;;17.17;68.17;97474.56;3070481;28;20436;-52
2021/12/02 00:43:03;;;;;;;;;;;;;;;17.15;68.14;97468.59;3071755;28;19926;-56
2021/12/02 00:44:37;;;;;;;;;;;;;;;17.15;67.96;97476.63;3068440;28;20381;-53
2021/12/02 00:46:10;;;;;;;;;;;;;;;17.12;68.12;97469.03;3070483;28;19923;-53
2021/12/02 00:47:42;;;;;;;;;;;;;;;17.12;68.21;97469.03;3067082;28;19980;-55
2021/12/02 00:49:17;;;;;;;;;;;;;;;17.12;68.23;97470.91;3072659;28;19922;-54
2021/12/02 00:50:49;;;;;;;;;;;;;;;17.10;68.28;97470.28;3071501;28;19936;-53
2021/12/02 00:52:21;;;;;;;;;;;;;;;17.09;68.36;97466.00;3072718;28;20016;-52
2021/12/02 00:53:54;;;;;;;;;;;;;;;17.08;68.25;97467.84;3071529;28;19922;-52
2021/12/02 00:55:26;;;;;;;;;;;;;;;17.08;68.23;97456.31;3070886;28;19952;-53
2021/12/02 00:56:58;;;;;;;;;;;;;;;17.06;68.40;97455.72;3072975;28;19961;-54
2021/12/02 00:58:29;;;;;;;;;;;;;;;17.05;68.48;97454.06;3073108;28;19922;-52
2021/12/02 01:00:03;;;;;;;;;;;;;;;17.05;68.34;97462.09;3071163;28;20021;-53
2021/12/02 01:01:36;;;;;;;;;;;;;;;17.03;68.46;97459.66;3065657;28;19926;-55
2021/12/02 01:03:07;;;;;;;;;;;;;;;17.04;68.39;97457.78;3072635;28;20341;-55
2021/12/02 01:04:40;;;;;;;;;;;;;;;17.05;68.35;97462.09;3064820;28;20003;-56
2021/12/02 01:06:11;;;;;;;;;;;;;;;17.03;68.38;97465.03;3069594;28;19922;-55
2021/12/02 01:07:43;;;;;;;;;;;;;;;17.01;68.38;97461.75;3070242;28;19930;-53
2021/12/02 01:09:15;;;;;;;;;;;;;;;17.00;68.33;97459.28;3073380;28;20388;-54
2021/12/02 01:10:46;;;;;;;;;;;;;;;17.00;68.50;97451.25;3070660;28;20928;-52
2021/12/02 01:12:18;;;;;;;;;;;;;;;17.00;68.35;97444.03;3072978;28;19922;-54
2021/12/02 01:13:50;;;;;;;;;;;;;;;16.99;68.26;97447.72;3071218;28;19930;-53
2021/12/02 01:15:21;;;;;;;;;;;;;;;16.96;68.47;97445.50;3073002;28;20443;-54
2021/12/02 01:16:53;;;;;;;;;;;;;;;16.96;68.42;97445.50;3074087;28;19923;-51
2021/12/02 01:18:25;;;;;;;;;;;;;;;16.96;68.21;97448.19;3074328;28;20378;-52
2021/12/02 01:19:57;;;;;;;;;;;;;;;16.96;68.33;97446.31;3068546;28;19930;-55
2021/12/02 01:21:29;;;;;;;;;;;;;;;16.94;68.26;97444.94;3072327;28;19922;-55
2021/12/02 01:23:01;;;;;;;;;;;;;;;16.93;68.33;97438.72;3075479;28;19922;-52
2021/12/02 01:24:33;;;;;;;;;;;;;;;16.91;68.24;97434.63;3074740;28;19981;-55
2021/12/02 01:26:06;;;;;;;;;;;;;;;16.89;68.33;97431.38;3074386;28;19922;-55
2021/12/02 01:27:39;;;;;;;;;;;;;;;16.88;68.27;97435.91;3072767;28;19929;-48
2021/12/02 01:29:12;;;;;;;;;;;;;;;16.88;68.30;97441.28;3076359;28;20001;-54
2021/12/02 01:30:46;;;;;;;;;;;;;;;16.88;68.39;97443.97;3069879;28;19978;-54
2021/12/02 01:32:18;;;;;;;;;;;;;;;16.86;68.32;97445.22;3074344;28;19922;-52
2021/12/02 01:33:51;;;;;;;;;;;;;;;16.83;68.26;97440.31;3069855;28;19988;-51
2021/12/02 01:35:25;;;;;;;;;;;;;;;16.81;68.27;97440.50;3072965;28;19922;-56
2021/12/02 01:36:57;;;;;;;;;;;;;;;16.83;68.27;97441.13;3073689;28;19922;-57
2021/12/02 01:38:29;;;;;;;;;;;;;;;16.81;68.32;97437.03;3069132;28;19922;-54
2021/12/02 01:40:01;;;;;;;;;;;;;;;16.81;68.32;97439.69;3072620;28;20447;-55
2021/12/02 01:41:37;;;;;;;;;;;;;;;16.80;68.18;97433.53;3072792;28;19922;-53
2021/12/02 01:43:10;;;;;;;;;;;;;;;16.79;68.12;97431.88;3075322;28;19946;-51
2021/12/02 01:44:42;;;;;;;;;;;;;;;16.79;68.22;97428.38;3072501;28;19929;-51
2021/12/02 01:46:14;;;;;;;;;;;;;;;16.79;68.19;97423.84;3071338;28;19925;-51
2021/12/02 01:47:47;;;;;;;;;;;;;;;16.77;68.19;97409.88;3071855;28;19993;-52
2021/12/02 01:49:19;;;;;;;;;;;;;;;16.77;68.22;97417.06;3075389;28;19922;-52
2021/12/02 01:51:01;;;;;;;;;;;;;;;16.75;68.27;97419.94;3069972;28;20421;-53
2021/12/02 01:52:33;;;;;;;;;;;;;;;16.76;68.26;97424.25;3072071;28;20004;-55
2021/12/02 01:54:07;;;;;;;;;;;;;;;16.74;68.25;97424.50;3068860;28;19930;-54
2021/12/02 01:55:42;;;;;;;;;;;;;;;16.73;68.17;97412.13;3071229;28;20550;-50
2021/12/02 01:57:24;;;;;;;;;;;;;;;16.72;68.14;97405.13;3072315;28;19963;-56
2021/12/02 01:59:00;;;;;;;;;;;;;;;16.72;68.13;97409.69;3071406;28;20045;-50
2021/12/02 02:00:41;;;;;;;;;;;;;;;16.72;68.24;97409.69;3070249;28;19938;-52
2021/12/02 02:02:12;;;;;;;;;;;;;;;16.69;68.16;97402.09;3071357;28;19985;-54
2021/12/02 02:03:44;;;;;;;;;;;;;;;16.68;68.25;97398.56;3069940;28;19984;-53
2021/12/02 02:05:17;;;;;;;;;;;;;;;16.67;68.34;97396.94;3068711;28;19986;-49
2021/12/02 02:06:57;;;;;;;;;;;;;;;16.67;68.36;97390.78;3070868;28;19981;-53
2021/12/02 02:08:30;;;;;;;;;;;;;;;16.66;68.29;97386.44;3068774;28;19930;-53
2021/12/02 02:10:01;;;;;;;;;;;;;;;16.65;68.37;97393.66;3073728;28;19922;-52
2021/12/02 02:11:33;;;;;;;;;;;;;;;16.64;68.40;97392.03;3063895;28;19933;-53
2021/12/02 02:13:07;;;;;;;;;;;;;;;16.63;68.32;97382.38;3072241;28;20332;-53
2021/12/02 02:14:39;;;;;;;;;;;;;;;16.62;68.31;97372.69;3070965;28;20503;-51
2021/12/02 02:16:11;;;;;;;;;;;;;;;16.61;68.39;97371.06;3070149;28;20303;-52
2021/12/02 02:17:45;;;;;;;;;;;;;;;16.61;68.43;97376.41;3068367;28;19944;-54
2021/12/02 02:19:17;;;;;;;;;;;;;;;16.60;68.44;97373.94;3070585;28;19930;-52
2021/12/02 02:20:57;;;;;;;;;;;;;;;16.58;68.52;97365.34;3070027;28;19930;-54
2021/12/02 02:22:28;;;;;;;;;;;;;;;16.57;68.50;97369.03;3070083;28;19931;-53
2021/12/02 02:24:00;;;;;;;;;;;;;;;16.56;68.53;97362.88;3074008;28;19922;-53
2021/12/02 02:25:32;;;;;;;;;;;;;;;16.55;68.64;97366.59;3072582;28;20009;-53
2021/12/02 02:27:04;;;;;;;;;;;;;;;16.56;68.52;97368.22;3071895;28;19926;-50
2021/12/02 02:28:35;;;;;;;;;;;;;;;16.56;68.69;97373.59;3067328;28;20491;-53
2021/12/02 02:30:10;;;;;;;;;;;;;;;16.54;68.56;97359.59;3070629;28;19931;-53
2021/12/02 02:31:43;;;;;;;;;;;;;;;16.53;68.63;97357.97;3072561;28;19922;-50
2021/12/02 02:33:16;;;;;;;;;;;;;;;16.54;68.54;97351.56;3073992;28;20603;-52
2021/12/02 02:34:48;;;;;;;;;;;;;;;16.52;68.61;97349.13;3071220;28;19929;-51
2021/12/02 02:36:22;;;;;;;;;;;;;;;16.51;68.66;97347.47;3071454;28;19926;-53
2021/12/02 02:37:54;;;;;;;;;;;;;;;16.51;68.61;97349.34;3071996;28;20281;-53
2021/12/02 02:39:28;;;;;;;;;;;;;;;16.50;68.58;97347.72;3071764;28;19929;-53
2021/12/02 02:41:00;;;;;;;;;;;;;;;16.49;68.62;97351.41;3074469;28;20580;-54
2021/12/02 02:42:32;;;;;;;;;;;;;;;16.48;68.59;97344.44;3073790;28;19926;-49
2021/12/02 02:44:05;;;;;;;;;;;;;;;16.46;68.63;97344.63;3074137;28;19926;-50
2021/12/02 02:45:36;;;;;;;;;;;;;;;16.45;68.62;97340.31;3065371;28;19925;-53
2021/12/02 02:47:07;;;;;;;;;;;;;;;16.45;68.70;97344.88;3074189;28;20456;-55
2021/12/02 02:48:39;;;;;;;;;;;;;;;16.44;68.64;97336.03;3047570;28;19997;-53
2021/12/02 02:50:11;;;;;;;;;;;;;;;16.45;68.68;97343.00;3072412;28;19922;-53
2021/12/02 02:51:45;;;;;;;;;;;;;;;16.43;68.60;97330.88;3069837;28;19930;-53
2021/12/02 02:53:18;;;;;;;;;;;;;;;16.42;68.66;97337.28;3073578;28;19934;-53
2021/12/02 02:54:51;;;;;;;;;;;;;;;16.42;68.78;97331.94;3070838;28;19936;-50
2021/12/02 02:56:25;;;;;;;;;;;;;;;16.41;68.90;97338.31;3073252;28;19922;-53
2021/12/02 02:58:03;;;;;;;;;;;;;;;16.41;68.91;97335.63;3070199;28;20768;-55
2021/12/02 02:59:40;;;;;;;;;;;;;;;16.39;68.96;97335.06;3070752;28;19929;-53
2021/12/02 03:01:24;;;;;;;;;;;;;;;16.38;68.93;97328.88;3068187;28;20746;-50
2021/12/02 03:03:00;;;;;;;;;;;;;;;16.38;68.90;97326.22;3063200;28;19926;-51
2021/12/02 03:04:39;;;;;;;;;;;;;;;16.36;68.94;97319.44;3070482;28;19992;-55
2021/12/02 03:06:26;;;;;;;;;;;;;;;16.36;68.94;97319.44;3074212;28;20387;-53
2021/12/02 03:08:10;;;;;;;;;;;;;;;16.35;68.88;97318.59;3072101;28;19930;-51
2021/12/02 03:09:57;;;;;;;;;;;;;;;16.35;68.90;97315.09;3067049;28;20304;-54
2021/12/02 03:11:38;;;;;;;;;;;;;;;16.33;68.87;97320.69;3068445;28;19965;-53
2021/12/02 03:13:15;;;;;;;;;;;;;;;16.33;68.99;97314.53;3073059;28;19922;-53
2021/12/02 03:16:37;;;;;;;;;;;;;;;16.32;68.96;97313.69;3070447;28;19931;-52
2021/12/02 03:16:46;;;;;;;;;;;;;;;16.31;69.02;97318.22;3069030;28;19937;-53
2021/12/02 03:18:17;;;;;;;;;;;;;;;16.31;68.93;97309.41;3072158;28;19923;-52
2021/12/02 03:19:48;;;;;;;;;;;;;;;16.29;68.99;97314.94;3071774;28;20597;-51
2021/12/02 03:21:21;;;;;;;;;;;;;;;16.28;68.90;97307.97;3069753;28;19969;-52
2021/12/02 03:22:52;;;;;;;;;;;;;;;16.29;69.02;97308.78;3068022;28;20009;-51
2021/12/02 03:24:25;;;;;;;;;;;;;;;16.26;69.04;97307.38;3069275;28;19922;-53
2021/12/02 03:25:57;;;;;;;;;;;;;;;16.26;68.98;97302.00;3067658;28;19930;-52
2021/12/02 03:27:28;;;;;;;;;;;;;;;16.26;69.02;97299.34;3064072;28;20978;-54
2021/12/02 03:29:01;;;;;;;;;;;;;;;16.26;68.93;97294.00;3072899;28;19922;-52
2021/12/02 03:30:32;;;;;;;;;;;;;;;16.25;69.03;97292.38;3068824;28;19973;-49
2021/12/02 03:32:04;;;;;;;;;;;;;;;16.24;69.03;97288.06;3073430;28;20419;-52
2021/12/02 03:33:35;;;;;;;;;;;;;;;16.23;69.08;97280.25;3069109;28;19926;-51
2021/12/02 03:35:07;;;;;;;;;;;;;;;16.23;68.97;97283.72;3073966;28;19926;-54
2021/12/02 03:36:39;;;;;;;;;;;;;;;16.22;68.95;97276.75;3070177;28;20013;-54
2021/12/02 03:38:11;;;;;;;;;;;;;;;16.21;68.76;97283.13;3068333;28;19923;-54
2021/12/02 03:39:44;;;;;;;;;;;;;;;16.22;69.04;97278.63;3069729;28;20450;-53
2021/12/02 03:41:16;;;;;;;;;;;;;;;16.21;69.03;97272.44;3072223;28;19922;-52
2021/12/02 03:42:48;;;;;;;;;;;;;;;16.20;69.09;97278.00;3071502;28;20764;-53
2021/12/02 03:44:20;;;;;;;;;;;;;;;16.20;69.12;97273.47;3064546;28;19941;-55
2021/12/02 03:45:51;;;;;;;;;;;;;;;16.20;69.08;97278.81;3073343;28;19926;-52
2021/12/02 03:47:23;;;;;;;;;;;;;;;16.18;69.11;97272.06;3073515;28;19922;-51
2021/12/02 03:48:55;;;;;;;;;;;;;;;16.19;69.07;97271.03;3069938;28;19926;-53
2021/12/02 03:50:27;;;;;;;;;;;;;;;16.17;68.99;97263.22;3072625;28;19927;-54
2021/12/02 03:51:58;;;;;;;;;;;;;;;16.18;69.01;97264.03;3072943;28;19926;-53
2021/12/02 03:53:29;;;;;;;;;;;;;;;16.16;68.99;97255.41;3066758;28;19922;-53
2021/12/02 03:55:02;;;;;;;;;;;;;;;16.16;69.00;97266.94;3073257;28;20396;-51
2021/12/02 03:56:34;;;;;;;;;;;;;;;16.15;69.02;97261.81;3070297;28;20344;-52
2021/12/02 03:58:05;;;;;;;;;;;;;;;16.13;69.05;97264.72;3074355;28;19922;-52
2021/12/02 03:59:37;;;;;;;;;;;;;;;16.12;69.03;97271.09;3072662;28;20324;-53
2021/12/02 04:01:09;;;;;;;;;;;;;;;16.13;69.05;97267.38;3068771;28;20499;-53
2021/12/02 04:02:40;;;;;;;;;;;;;;;16.14;69.08;97274.38;3067757;28;19933;-50
2021/12/02 04:04:12;;;;;;;;;;;;;;;16.13;68.98;97271.91;3072516;28;19922;-54
2021/12/02 04:05:43;;;;;;;;;;;;;;;16.12;68.91;97271.09;3070627;28;19926;-52
2021/12/02 04:07:17;;;;;;;;;;;;;;;16.12;68.91;97265.72;3069939;28;19922;-53
2021/12/02 04:08:52;;;;;;;;;;;;;;;16.09;69.07;97260.84;3068374;28;19932;-53
2021/12/02 04:10:25;;;;;;;;;;;;;;;16.09;69.08;97260.84;3069009;28;19925;-50
2021/12/02 04:12:01;;;;;;;;;;;;;;;16.08;69.12;97257.34;3073867;28;19922;-53
2021/12/02 04:13:34;;;;;;;;;;;;;;;16.08;69.31;97251.19;3070759;28;19922;-53
2021/12/02 04:15:11;;;;;;;;;;;;;;;16.07;69.29;97244.19;3071225;28;19933;-54
2021/12/02 04:16:51;;;;;;;;;;;;;;;16.05;69.23;97239.06;3072944;28;20401;-52
2021/12/02 04:18:23;;;;;;;;;;;;;;;16.05;69.18;97248.94;3068047;28;19922;-51
2021/12/02 04:19:55;;;;;;;;;;;;;;;16.03;69.25;97243.00;3071102;28;19923;-53
2021/12/02 04:21:26;;;;;;;;;;;;;;;16.02;69.32;97244.84;3071892;28;19926;-52
2021/12/02 04:22:58;;;;;;;;;;;;;;;16.02;69.29;97249.41;3071675;28;19969;-53
2021/12/02 04:24:30;;;;;;;;;;;;;;;16.01;69.33;97237.03;3072271;28;20288;-54
2021/12/02 04:26:03;;;;;;;;;;;;;;;16.00;69.31;97240.75;3071721;28;20007;-54
2021/12/02 04:27:34;;;;;;;;;;;;;;;16.00;69.32;97225.53;3071081;28;20420;-53
2021/12/02 04:29:06;;;;;;;;;;;;;;;16.02;69.30;97233.34;3074204;28;19926;-52
2021/12/02 04:30:37;;;;;;;;;;;;;;;16.01;69.32;97229.03;3072152;28;20576;-53
2021/12/02 04:32:10;;;;;;;;;;;;;;;16.00;69.19;97220.19;3071154;28;20671;-53
2021/12/02 04:33:40;;;;;;;;;;;;;;;15.99;69.24;97215.88;3070367;28;19925;-52
2021/12/02 04:35:12;;;;;;;;;;;;;;;15.99;69.35;97212.38;3066417;28;20641;-54
2021/12/02 04:36:44;;;;;;;;;;;;;;;15.98;69.34;97211.56;3071109;28;19924;-54
2021/12/02 04:38:16;;;;;;;;;;;;;;;15.99;69.40;97210.53;3067637;28;20497;-55
2021/12/02 04:39:47;;;;;;;;;;;;;;;15.99;69.22;97215.03;3070894;28;20568;-52
2021/12/02 04:41:20;;;;;;;;;;;;;;;15.99;69.53;97207.03;3073065;28;20446;-53
2021/12/02 04:42:53;;;;;;;;;;;;;;;15.99;69.50;97212.38;3069159;28;19933;-51
2021/12/02 04:44:25;;;;;;;;;;;;;;;15.99;69.51;97207.88;3073186;28;19934;-51
2021/12/02 04:45:56;;;;;;;;;;;;;;;16.01;69.63;97199.59;3069305;28;19923;-54
2021/12/02 04:47:28;;;;;;;;;;;;;;;16.01;69.81;97210.31;3070368;28;19990;-54
2021/12/02 04:48:59;;;;;;;;;;;;;;;16.02;69.79;97211.97;3075455;28;19929;-54
2021/12/02 04:50:31;;;;;;;;;;;;;;;16.02;69.84;97199.41;3076223;28;20623;-53
2021/12/02 04:52:03;;;;;;;;;;;;;;;16.02;69.85;97195.91;3066027;28;19922;-54
2021/12/02 04:53:34;;;;;;;;;;;;;;;16.02;69.92;97190.56;3070860;28;19933;-50
2021/12/02 04:55:07;;;;;;;;;;;;;;;16.03;69.94;97192.19;3069847;28;19923;-53
2021/12/02 04:56:40;;;;;;;;;;;;;;;16.02;69.85;97195.91;3071577;28;20377;-53
2021/12/02 04:58:11;;;;;;;;;;;;;;;16.02;69.95;97194.03;3074575;28;19937;-53
2021/12/02 04:59:43;;;;;;;;;;;;;;;16.03;69.88;97208.22;3075608;28;19925;-52
2021/12/02 05:01:14;;;;;;;;;;;;;;;16.02;70.01;97199.41;3068726;28;20017;-53
2021/12/02 05:02:45;;;;;;;;;;;;;;;16.02;69.93;97206.59;3074514;28;19929;-54
2021/12/02 05:04:17;;;;;;;;;;;;;;;16.00;69.93;97201.47;3076579;28;19926;-53
2021/12/02 05:05:48;;;;;;;;;;;;;;;16.04;69.92;97199.16;3074294;28;19943;-54
2021/12/02 05:07:20;;;;;;;;;;;;;;;16.06;70.01;97205.09;3071165;28;19952;-51
2021/12/02 05:08:51;;;;;;;;;;;;;;;16.10;70.13;97195.59;3069784;28;19922;-52
2021/12/02 05:10:23;;;;;;;;;;;;;;;16.12;70.20;97198.88;3072455;28;19929;-54
2021/12/02 05:11:56;;;;;;;;;;;;;;;16.16;70.13;97197.41;3073463;28;20557;-54
2021/12/02 05:13:27;;;;;;;;;;;;;;;16.21;70.17;97194.03;3069400;28;19930;-54
2021/12/02 05:14:59;;;;;;;;;;;;;;;16.26;70.23;97191.50;3074596;28;19926;-52
2021/12/02 05:16:31;;;;;;;;;;;;;;;16.30;70.29;97190.84;3072635;28;19927;-52
2021/12/02 05:18:02;;;;;;;;;;;;;;;16.35;70.38;97192.84;3074303;28;19945;-51
2021/12/02 05:19:34;;;;;;;;;;;;;;;16.40;70.34;97189.50;3075333;28;19984;-53
2021/12/02 05:21:05;;;;;;;;;;;;;;;16.44;70.44;97188.03;3076461;28;19921;-55
2021/12/02 05:22:37;;;;;;;;;;;;;;;16.49;70.34;97197.03;3072316;28;19926;-53
2021/12/02 05:24:08;;;;;;;;;;;;;;;16.53;70.02;97179.44;3075414;28;19928;-50
2021/12/02 05:25:43;;;;;;;;;;;;;;;16.58;69.93;97184.13;3072997;28;20304;-52
2021/12/02 05:27:16;;;;;;;;;;;;;;;16.63;69.81;97188.78;3072649;28;20005;-52
2021/12/02 05:28:48;;;;;;;;;;;;;;;16.64;69.80;97183.22;3071345;28;19937;-52
2021/12/02 05:30:19;;;;;;;;;;;;;;;16.67;69.63;97185.44;3073094;28;19929;-51
2021/12/02 05:31:51;;;;;;;;;;;;;;;16.69;69.65;97185.25;3071398;28;19980;-51
2021/12/02 05:33:22;;;;;;;;;;;;;;;16.71;69.74;97183.94;3073787;28;20495;-52
2021/12/02 05:34:54;;;;;;;;;;;;;;;16.73;69.67;97181.88;3074180;28;19948;-52
2021/12/02 05:36:26;;;;;;;;;;;;;;;16.77;69.64;97192.16;3075622;28;20653;-52
2021/12/02 05:37:57;;;;;;;;;;;;;;;16.79;69.70;97187.38;3072006;28;20031;-49
2021/12/02 05:39:29;;;;;;;;;;;;;;;16.80;69.47;97183.66;3072779;28;21221;-54
2021/12/02 05:41:00;;;;;;;;;;;;;;;16.81;69.41;97186.13;3075566;28;19938;-49
2021/12/02 05:42:33;;;;;;;;;;;;;;;16.85;69.30;97181.13;3073581;28;19937;-53
2021/12/02 05:44:05;;;;;;;;;;;;;;;16.86;69.30;97174.75;3072239;28;20636;-53
2021/12/02 05:45:36;;;;;;;;;;;;;;;16.87;69.24;97171.81;3065099;28;19968;-52
2021/12/02 05:47:08;;;;;;;;;;;;;;;16.88;69.28;97167.28;3073766;28;19930;-50
2021/12/02 05:48:40;;;;;;;;;;;;;;;16.95;68.95;97163.47;3074261;28;19927;-54
2021/12/02 05:50:12;;;;;;;;;;;;;;;16.95;69.32;97160.78;3072237;28;19980;-50
2021/12/02 05:51:45;;;;;;;;;;;;;;;17.03;68.40;97148.94;3073242;28;20015;-50
2021/12/02 05:53:16;;;;;;;;;;;;;;;17.04;68.44;97155.91;3073930;28;20002;-49
2021/12/02 05:54:48;;;;;;;;;;;;;;;17.02;68.86;97154.50;3071399;28;19937;-50
2021/12/02 05:56:19;;;;;;;;;;;;;;;17.02;68.99;97135.75;3072118;28;19933;-50
2021/12/02 05:57:52;;;;;;;;;;;;;;;17.03;69.12;97138.22;3073753;28;19937;-48
2021/12/02 05:59:25;;;;;;;;;;;;;;;17.02;69.05;97136.59;3071586;28;19926;-52
2021/12/02 06:00:56;;;;;;;;;;;;;;;17.04;69.02;97139.84;3068671;28;19923;-49
2021/12/02 06:02:28;;;;;;;;;;;;;;;17.06;69.16;97136.94;3073618;28;19930;-48
2021/12/02 06:03:59;;;;;;;;;;;;;;;17.05;69.11;97130.78;3073201;28;19954;-48
2021/12/02 06:05:31;;;;;;;;;;;;;;;17.06;69.01;97136.94;3072387;28;20333;-51
2021/12/02 06:07:03;;;;;;;;;;;;;;;17.08;68.88;97130.31;3069321;28;19922;-51
2021/12/02 06:08:36;;;;;;;;;;;;;;;17.15;68.69;97132.88;3071859;28;19985;-50
2021/12/02 06:10:08;;;;;;;;;;;;;;;17.19;68.99;97126.84;3072938;28;19930;-52
2021/12/02 06:11:39;;;;;;;;;;;;;;;17.23;69.40;97123.69;3070932;28;19942;-55
2021/12/02 06:13:12;;;;;;;;;;;;;;;17.25;68.13;97121.59;3071889;28;19922;-51
2021/12/02 06:14:44;;;;;;;;;;;;;;;17.26;68.46;97116.00;3070354;28;19922;-52
2021/12/02 06:16:16;;;;;;;;;;;;;;;17.30;67.77;97114.50;3065836;28;19929;-55
2021/12/02 06:17:48;;;;;;;;;;;;;;;17.31;67.28;97109.97;3064959;28;19962;-53
2021/12/02 06:19:19;;;;;;;;;;;;;;;17.36;66.66;97107.41;3071880;28;20595;-53
2021/12/02 06:20:54;;;;;;;;;;;;;;;17.38;66.18;97105.28;3074533;28;19993;-52
2021/12/02 06:22:25;;;;;;;;;;;;;;;17.41;65.83;97102.97;3070690;28;20034;-54
2021/12/02 06:23:57;;;;;;;;;;;;;;;17.43;65.57;97106.22;3075656;28;19929;-54
2021/12/02 06:25:46;;;;;;;;;;;;;;;17.46;65.45;97107.63;3073790;28;20014;-54
2021/12/02 06:27:18;;;;;;;;;;;;;;;17.50;65.30;97118.72;3069458;28;19922;-50
2021/12/02 06:28:51;;;;;;;;;;;;;;;17.50;65.38;97116.03;3068248;28;19930;-56
2021/12/02 06:30:23;;;;;;;;;;;;;;;17.51;65.18;97120.34;3067201;28;19984;-54
2021/12/02 06:31:55;;;;;;;;;;;;;;;17.51;65.20;97118.47;3070676;28;20001;-52
2021/12/02 06:33:26;;;;;;;;;;;;;;;17.56;65.28;97129.31;3069285;28;19933;-53
2021/12/02 06:34:58;;;;;;;;;;;;;;;17.55;65.66;97125.00;3064717;28;20004;-52
2021/12/02 06:36:29;;;;;;;;;;;;;;;17.57;65.84;97130.13;3065427;28;20653;-55
2021/12/02 06:38:01;;;;;;;;;;;;;;;17.59;65.90;97128.84;3068477;28;19922;-56
2021/12/02 06:39:33;;;;;;;;;;;;;;;17.63;66.66;97113.09;3069830;28;19927;-56
2021/12/02 06:41:04;;;;;;;;;;;;;;;17.65;66.86;97114.50;3068544;28;20572;-59
2021/12/02 06:42:36;;;;;;;;;;;;;;;17.62;66.54;97109.59;3067378;28;19989;-49
2021/12/02 06:44:09;;;;;;;;;;;;;;;17.68;66.14;97107.84;3065939;28;19922;-51
2021/12/02 06:45:41;;;;;;;;;;;;;;;17.68;65.30;97109.72;3069681;28;19933;-50
2021/12/02 06:47:13;;;;;;;;;;;;;;;17.69;65.18;97106.81;3071015;28;19988;-47
2021/12/02 06:48:46;;;;;;;;;;;;;;;17.69;64.66;97103.28;3061949;28;22898;-51
2021/12/02 06:50:19;;;;;;;;;;;;;;;17.70;64.46;97094.22;3065622;28;19932;-48
2021/12/02 06:51:51;;;;;;;;;;;;;;;17.71;64.26;97098.53;3067464;28;20015;-50
2021/12/02 06:53:23;;;;;;;;;;;;;;;17.69;64.18;97090.72;3069860;28;19934;-51
2021/12/02 06:54:54;;;;;;;;;;;;;;;17.69;64.00;97103.28;3067357;28;20430;-49
2021/12/02 06:56:26;;;;;;;;;;;;;;;17.69;63.94;97104.13;3068056;28;19976;-50
2021/12/02 06:57:58;;;;;;;;;;;;;;;17.70;63.90;97104.94;3068105;28;20600;-51
2021/12/02 06:59:30;;;;;;;;;;;;;;;17.70;63.75;97104.94;3073519;28;19922;-49
2021/12/02 07:01:02;;;;;;;;;;;;;;;17.71;63.76;97101.19;3072468;28;19922;-49
2021/12/02 07:02:33;;;;;;;;;;;;;;;17.73;63.81;97104.47;3068246;28;19927;-48
2021/12/02 07:04:04;;;;;;;;;;;;;;;17.74;63.32;97106.09;3067880;28;19922;-51
2021/12/02 07:05:36;;;;;;;;;;;;;;;17.76;63.33;97104.00;3065961;28;20468;-49
2021/12/02 07:07:07;;;;;;;;;;;;;;;17.80;63.57;97105.19;3069705;28;19933;-49
2021/12/02 07:08:39;;;;;;;;;;;;;;;17.82;63.26;97103.09;3068032;28;19985;-49
2021/12/02 07:10:12;;;;;;;;;;;;;;;17.83;63.30;97113.59;3049367;28;19989;-50
2021/12/02 07:11:43;;;;;;;;;;;;;;;17.84;63.11;97111.72;3066992;28;20226;-49
2021/12/02 07:13:15;;;;;;;;;;;;;;;17.85;63.00;97113.34;3066937;28;19922;-51
2021/12/02 07:14:48;;;;;;;;;;;;;;;17.85;63.00;97107.97;3070634;28;19997;-48
2021/12/02 07:16:20;;;;;;;;;;;;;;;17.87;63.07;97111.25;3073296;28;19926;-50
2021/12/02 07:17:55;;;;;;;;;;;;;;;17.86;63.04;97117.66;3064624;28;19922;-48
2021/12/02 07:19:27;;;;;;;;;;;;;;;17.85;63.23;97106.09;3072545;28;19922;-48
2021/12/02 07:20:59;;;;;;;;;;;;;;;17.83;63.53;97107.41;3066047;28;19930;-54
2021/12/02 07:22:30;;;;;;;;;;;;;;;17.79;63.51;97116.97;3060296;28;19930;-54
2021/12/02 07:24:02;;;;;;;;;;;;;;;17.78;63.51;97110.78;3064872;28;21247;-55
2021/12/02 07:25:34;;;;;;;;;;;;;;;17.77;63.60;97117.16;3065517;28;19985;-54
2021/12/02 07:27:06;;;;;;;;;;;;;;;17.78;63.47;97126.03;3065277;28;19985;-53
2021/12/02 07:28:37;;;;;;;;;;;;;;;17.76;63.93;97120.09;3066561;28;19971;-54
2021/12/02 07:30:11;;;;;;;;;;;;;;;17.77;63.67;97122.53;3065775;28;19980;-53
2021/12/02 07:31:43;;;;;;;;;;;;;;;17.77;63.71;97122.53;3068402;28;19925;-55
2021/12/02 07:33:15;;;;;;;;;;;;;;;17.78;63.85;97116.16;3060406;28;19930;-56
2021/12/02 07:34:46;;;;;;;;;;;;;;;17.78;63.91;97113.47;3064136;28;19977;-55
2021/12/02 07:36:18;;;;;;;;;;;;;;;17.78;63.98;97118.00;3063650;28;20428;-55
2021/12/02 07:37:50;;;;;;;;;;;;;;;17.78;64.00;97112.63;3068149;28;19930;-55
2021/12/02 07:39:22;;;;;;;;;;;;;;;17.78;64.00;97109.94;3069248;28;19930;-56
2021/12/02 07:40:54;;;;;;;;;;;;;;;17.79;64.07;97111.59;3068428;28;19941;-54
2021/12/02 07:42:26;;;;;;;;;;;;;;;17.77;64.10;97110.97;3064705;28;19937;-52
2021/12/02 07:43:58;;;;;;;;;;;;;;;17.78;64.01;97118.00;3069071;28;19926;-52
2021/12/02 07:45:34;;;;;;;;;;;;;;;17.76;63.97;97120.09;3065664;28;19929;-55
2021/12/02 07:47:07;;;;;;;;;;;;;;;17.75;64.04;97113.09;3065625;28;20025;-54
2021/12/02 07:48:38;;;;;;;;;;;;;;;17.74;64.19;97116.81;3066938;28;19922;-53
2021/12/02 07:50:11;;;;;;;;;;;;;;;17.73;64.04;97112.53;3068670;28;19930;-54
2021/12/02 07:51:44;;;;;;;;;;;;;;;17.73;64.46;97099.91;3066394;28;20052;-52
2021/12/02 07:53:16;;;;;;;;;;;;;;;17.73;64.09;97101.78;3065603;28;19930;-55
2021/12/02 07:54:50;;;;;;;;;;;;;;;17.72;64.26;97108.19;3064963;28;19930;-54
2021/12/02 07:56:23;;;;;;;;;;;;;;;17.72;64.14;97113.53;3068720;28;20991;-53
2021/12/02 07:57:54;;;;;;;;;;;;;;;17.70;64.18;97115.66;3066993;28;20483;-54
2021/12/02 07:59:26;;;;;;;;;;;;;;;17.69;64.33;97109.50;3070038;28;19934;-53
2021/12/02 08:01:00;;;;;;;;;;;;;;;17.67;64.20;97114.28;3069418;28;19929;-54
2021/12/02 08:02:35;;;;;;;;;;;;;;;17.68;64.18;97117.75;3066509;28;20174;-54
2021/12/02 08:04:07;;;;;;;;;;;;;;;17.66;64.22;97117.97;3068312;28;19980;-53
2021/12/02 08:05:39;;;;;;;;;;;;;;;17.65;64.20;97122.53;3067486;28;19929;-54